CNA8 weather

CLOSED Winchester Airport
Winchester, Ontario, Canada

Public forecast

Using degrees Celsius for public forecast. Weather courtesy of forecast.io.

Closest aviation weather report (METAR) to Winchester Airport

Closest report is Massena International Richards Field, 20.5 nm (38.0 km) ESE. Retrieved 2020/02/21 00:53 UTC (17 minutes ago):

KMSS 210053Z AUTO 00000KT 10SM CLR M17/M22 A3050 RMK AO2 SLP341 T11721222

Closest aviation forecast (TAF) to Winchester Airport

Closest forecast is Massena International Richards Field, 20.5 nm (38.0 km) ESE. Retrieved 2020-02-21 00:24 UTC (46 minutes ago):

TAF KMSS 202321Z 2100/2124 00000KT P6SM FEW250 FM211200 22007KT P6SM FEW040 FM212100 22015G23KT P6SM FEW180